ENAN

Andøya Airport

Andenes, Norway
METAR ENAN 151320Z 19007KT 9999 FEW021 M07/M09 Q0992
Observed Flight Rules
Dec-15 @ 13:20 UTC (41 minutes ago) Visual Flight Rules
Wind Visibility Clouds
190° at 7 knots 10,000+ meters
  • Few at 2,100' AGL
Temperatures Readings
Current -7°C / 19°F
Dewpoint -9°C / 16°F
Humidity 86%
Altimeter 29.29" Hg
Pressure 992 hPa
Elevation 14
METAR ENAN 151320Z 19007KT 9999 FEW021 M07/M09 Q0992
Observed Flight Rules
Dec-15 @ 13:20 UTC
(41 minutes ago)
VFR
Wind Visibility
190° at 7 knots 10,000+ meters
Clouds
  • Few at 2,100' AGL
Temperature Dewpoint
-7°C / 19°F -9°C / 16°F
Humidity Altimeter Pressure
86% 29.29" Hg 992 hPa